createdAt,value
2022-09-28T00:00:15.104Z,86
2022-09-28T00:05:15.102Z,86
2022-09-28T00:10:15.091Z,86
2022-09-28T00:15:15.099Z,86
2022-09-28T00:20:15.092Z,87
2022-09-28T00:25:15.099Z,87
2022-09-28T00:30:15.094Z,87
2022-09-28T00:35:15.098Z,87
2022-09-28T00:40:15.126Z,87
2022-09-28T00:45:15.105Z,87
2022-09-28T00:50:15.106Z,87
2022-09-28T00:55:15.103Z,86
2022-09-28T01:00:15.107Z,86
2022-09-28T01:05:15.101Z,86
2022-09-28T01:10:15.095Z,86
2022-09-28T01:15:15.087Z,86
2022-09-28T01:20:15.092Z,86
2022-09-28T01:25:15.096Z,86
2022-09-28T01:30:15.094Z,86
2022-09-28T01:35:15.098Z,86
2022-09-28T01:40:15.146Z,86
2022-09-28T01:45:15.084Z,86
2022-09-28T01:50:15.094Z,86
2022-09-28T01:55:15.110Z,87
2022-09-28T02:00:15.103Z,87
2022-09-28T02:05:15.095Z,87
2022-09-28T02:10:15.095Z,87
2022-09-28T02:15:15.105Z,87
2022-09-28T02:20:15.097Z,87
2022-09-28T02:25:15.108Z,87
2022-09-28T02:30:15.088Z,87
2022-09-28T02:35:15.090Z,87
2022-09-28T02:40:15.174Z,87
2022-09-28T02:45:15.094Z,87
2022-09-28T02:50:15.096Z,87
2022-09-28T02:55:15.092Z,87
2022-09-28T03:00:15.086Z,87
2022-09-28T03:05:15.098Z,87
2022-09-28T03:10:15.086Z,87
2022-09-28T03:15:15.096Z,87
2022-09-28T03:20:15.097Z,87
2022-09-28T03:25:15.103Z,87
2022-09-28T03:30:15.093Z,87
2022-09-28T03:35:15.099Z,87
2022-09-28T03:40:15.171Z,87
2022-09-28T03:45:15.101Z,87
2022-09-28T03:50:15.099Z,87
2022-09-28T03:55:15.092Z,87
2022-09-28T04:00:15.104Z,87
2022-09-28T04:05:15.098Z,87
2022-09-28T04:10:15.085Z,87
2022-09-28T04:15:15.093Z,87
2022-09-28T04:20:15.092Z,87
2022-09-28T04:25:15.125Z,87
2022-09-28T04:30:15.105Z,88
2022-09-28T04:35:15.177Z,88
2022-09-28T04:40:15.226Z,88
2022-09-28T04:45:15.109Z,88
2022-09-28T04:50:15.107Z,88
2022-09-28T04:55:15.107Z,88
2022-09-28T05:00:15.117Z,88
2022-09-28T05:05:15.108Z,88
2022-09-28T05:10:15.122Z,88
2022-09-28T05:15:15.121Z,88
2022-09-28T05:20:15.112Z,88
2022-09-28T05:25:15.107Z,88
2022-09-28T05:30:15.113Z,88
2022-09-28T05:35:15.114Z,87
2022-09-28T05:40:15.269Z,87
2022-09-28T05:45:15.101Z,86
2022-09-28T05:50:15.087Z,86
2022-09-28T05:55:15.092Z,86
2022-09-28T06:00:15.099Z,86
2022-09-28T06:05:15.240Z,86
2022-09-28T06:10:15.092Z,86
2022-09-28T06:15:15.088Z,86
2022-09-28T06:20:15.090Z,86
2022-09-28T06:25:15.101Z,86
2022-09-28T06:30:15.099Z,86
2022-09-28T06:35:15.111Z,86
2022-09-28T06:40:15.178Z,85
2022-09-28T06:45:15.094Z,85
2022-09-28T06:50:15.096Z,84
2022-09-28T06:55:15.097Z,84
2022-09-28T07:00:15.096Z,84
2022-09-28T07:05:15.096Z,84
2022-09-28T07:10:15.088Z,84
2022-09-28T07:15:15.103Z,84
2022-09-28T07:20:19.038Z,84
2022-09-28T07:25:15.099Z,83
2022-09-28T07:30:15.104Z,84
2022-09-28T07:35:15.118Z,83
2022-09-28T07:40:15.299Z,83
2022-09-28T07:45:15.100Z,83
2022-09-28T07:50:15.108Z,82
2022-09-28T07:55:15.112Z,81
2022-09-28T08:00:15.098Z,80
2022-09-28T08:05:15.118Z,79
2022-09-28T08:10:15.106Z,78
2022-09-28T08:15:15.108Z,77
2022-09-28T08:20:15.105Z,76
2022-09-28T08:25:15.106Z,77
2022-09-28T08:30:15.099Z,77
2022-09-28T08:35:15.117Z,78
2022-09-28T08:40:15.180Z,78
2022-09-28T08:45:15.101Z,78
2022-09-28T08:50:15.108Z,79
2022-09-28T08:55:15.100Z,79
2022-09-28T09:00:15.097Z,79
2022-09-28T09:05:15.095Z,79
2022-09-28T09:10:15.096Z,79
2022-09-28T09:15:15.098Z,78
2022-09-28T09:20:15.089Z,78
2022-09-28T09:25:15.096Z,76
2022-09-28T09:30:17.352Z,76
2022-09-28T09:35:15.094Z,74
2022-09-28T09:40:15.108Z,73
2022-09-28T09:45:15.089Z,73
2022-09-28T09:50:15.096Z,72
2022-09-28T09:55:15.090Z,73
2022-09-28T10:00:15.103Z,74
2022-09-28T10:05:15.104Z,74
2022-09-28T10:10:15.098Z,76
2022-09-28T10:15:15.123Z,76
2022-09-28T10:20:15.094Z,76
2022-09-28T10:25:15.101Z,77
2022-09-28T10:30:15.089Z,77
2022-09-28T10:35:15.096Z,77
2022-09-28T10:40:15.085Z,76
2022-09-28T10:45:15.091Z,76
2022-09-28T10:50:15.085Z,75
2022-09-28T10:55:15.105Z,76
2022-09-28T11:00:15.101Z,76
2022-09-28T11:05:15.099Z,75
2022-09-28T11:10:15.088Z,74
2022-09-28T11:15:15.093Z,74
2022-09-28T11:20:15.085Z,72
2022-09-28T11:25:15.096Z,71
2022-09-28T11:30:15.102Z,71
2022-09-28T11:35:15.092Z,70
2022-09-28T11:40:15.102Z,69
2022-09-28T11:45:15.097Z,68
2022-09-28T11:50:16.312Z,69
2022-09-28T11:55:15.105Z,69
2022-09-28T12:00:15.171Z,69
2022-09-28T12:05:19.969Z,69
2022-09-28T12:10:15.085Z,68
2022-09-28T12:15:15.126Z,68
2022-09-28T12:20:15.102Z,69
2022-09-28T12:25:15.103Z,69
2022-09-28T12:30:15.096Z,69
2022-09-28T12:35:15.095Z,70
2022-09-28T12:40:15.087Z,70
2022-09-28T12:45:15.093Z,71
2022-09-28T12:55:15.099Z,71
2022-09-28T13:00:15.094Z,71
2022-09-28T13:05:15.108Z,71
2022-09-28T13:10:15.098Z,70
2022-09-28T13:15:15.105Z,70
2022-09-28T13:20:15.098Z,68
2022-09-28T13:25:15.097Z,68
2022-09-28T13:30:15.105Z,68
2022-09-28T13:35:15.093Z,68
2022-09-28T13:40:15.093Z,67
2022-09-28T13:45:15.108Z,67
2022-09-28T13:50:15.098Z,67
2022-09-28T13:55:15.100Z,67
2022-09-28T14:00:15.102Z,67
2022-09-28T14:05:15.095Z,67
2022-09-28T14:10:15.108Z,68
2022-09-28T14:15:15.098Z,68
2022-09-28T14:20:15.102Z,68
2022-09-28T14:25:15.093Z,68
2022-09-28T14:30:15.104Z,68
2022-09-28T14:35:18.549Z,68
2022-09-28T14:40:15.095Z,68
2022-09-28T14:45:15.105Z,68
2022-09-28T14:50:15.134Z,68
2022-09-28T14:55:15.093Z,69
2022-09-28T15:00:15.089Z,69
2022-09-28T15:05:15.204Z,68
2022-09-28T15:10:15.089Z,69
2022-09-28T15:15:15.101Z,68
2022-09-28T15:20:15.089Z,69
2022-09-28T15:25:15.101Z,68
2022-09-28T15:30:15.101Z,68
2022-09-28T15:35:15.105Z,69
2022-09-28T15:40:15.088Z,69
2022-09-28T15:45:15.102Z,70
2022-09-28T15:50:15.102Z,70
2022-09-28T15:55:15.103Z,70
2022-09-28T16:00:15.097Z,71
2022-09-28T16:05:15.094Z,71
2022-09-28T16:10:15.410Z,71
2022-09-28T16:15:15.094Z,71
2022-09-28T16:20:15.095Z,71
2022-09-28T16:25:15.099Z,71
2022-09-28T16:30:15.106Z,71
2022-09-28T16:35:15.102Z,71
2022-09-28T16:40:15.085Z,71
2022-09-28T16:45:15.115Z,72
2022-09-28T16:50:15.094Z,73
2022-09-28T16:55:36.115Z,74
2022-09-28T17:00:15.097Z,77
2022-09-28T17:05:15.101Z,79
2022-09-28T17:10:15.097Z,80
2022-09-28T17:15:15.109Z,80
2022-09-28T17:20:15.099Z,81
2022-09-28T17:25:15.089Z,82
2022-09-28T17:30:15.097Z,82
2022-09-28T17:35:25.243Z,82
2022-09-28T17:40:15.091Z,82
2022-09-28T17:45:15.093Z,83
2022-09-28T17:50:15.099Z,83
2022-09-28T17:55:15.100Z,83
2022-09-28T18:00:15.088Z,84
2022-09-28T18:05:15.099Z,84
2022-09-28T18:10:15.090Z,84
2022-09-28T18:15:15.097Z,85
2022-09-28T18:20:15.093Z,85
2022-09-28T18:25:15.096Z,85
2022-09-28T18:30:15.088Z,85
2022-09-28T18:35:17.435Z,85
2022-09-28T18:40:15.090Z,86
2022-09-28T18:45:15.098Z,86
2022-09-28T18:50:15.086Z,86
2022-09-28T18:55:15.096Z,86
2022-09-28T19:00:15.093Z,86
2022-09-28T19:05:15.109Z,86
2022-09-28T19:10:15.092Z,86
2022-09-28T19:15:15.109Z,86
2022-09-28T19:20:15.087Z,86
2022-09-28T19:25:15.088Z,86
2022-09-28T19:30:15.094Z,86
2022-09-28T19:35:15.099Z,86
2022-09-28T19:40:15.097Z,86
2022-09-28T19:45:15.100Z,86
2022-09-28T19:50:15.091Z,84
2022-09-28T19:55:15.099Z,82
2022-09-28T20:00:15.086Z,81
2022-09-28T20:05:15.091Z,81
2022-09-28T20:10:15.111Z,82
2022-09-28T20:15:15.112Z,82
2022-09-28T20:20:15.086Z,82
2022-09-28T20:25:15.108Z,82
2022-09-28T20:30:15.087Z,81
2022-09-28T20:35:26.077Z,81
2022-09-28T20:40:15.094Z,80
2022-09-28T20:45:15.093Z,80
2022-09-28T20:50:15.096Z,79
2022-09-28T20:55:15.326Z,79
2022-09-28T21:00:15.091Z,78
2022-09-28T21:05:15.102Z,78
2022-09-28T21:10:15.083Z,78
2022-09-28T21:15:15.107Z,78
2022-09-28T21:20:15.095Z,78
2022-09-28T21:25:15.089Z,78
2022-09-28T21:30:15.087Z,78
2022-09-28T21:35:15.094Z,78
2022-09-28T21:40:15.093Z,79
2022-09-28T21:45:15.087Z,81
2022-09-28T21:50:15.090Z,82
2022-09-28T21:55:15.098Z,82
2022-09-28T22:00:15.096Z,82
2022-09-28T22:05:15.098Z,83
2022-09-28T22:10:15.091Z,83
2022-09-28T22:15:15.099Z,83
2022-09-28T22:20:15.086Z,83
2022-09-28T22:25:15.110Z,83
2022-09-28T22:30:15.103Z,84
2022-09-28T22:35:15.097Z,84
2022-09-28T22:40:15.090Z,84
2022-09-28T22:45:15.097Z,84
2022-09-28T22:50:15.094Z,84
2022-09-28T22:55:15.093Z,84
2022-09-28T23:00:15.099Z,84
2022-09-28T23:05:15.091Z,84
2022-09-28T23:10:15.090Z,85
2022-09-28T23:15:15.089Z,85
2022-09-28T23:20:15.096Z,85
2022-09-28T23:25:15.100Z,85
2022-09-28T23:30:15.084Z,86
2022-09-28T23:35:15.092Z,86
2022-09-28T23:40:15.099Z,85
2022-09-28T23:45:15.100Z,85
2022-09-28T23:50:15.149Z,85
2022-09-28T23:55:15.092Z,85
